Time;durP1;ratioP1;P1;durP2;ratioP2;P2;SDS_P1;SDS_P2;PMS_P1;PMS_P2;Temp;Humidity;BMP_temperature;BMP_pressure;BME280_temperature;BME280_humidity;BME280_pressure;Samples;Min_cycle;Max_cycle;Signal;HPM_P1;HPM_P2
2021/09/20 00:02:54;;;;;;;7.47;4.78;;;14.20;99.90;;;;;;6736013;88;20319;-79
2021/09/20 00:12:55;;;;;;;8.60;5.50;;;14.10;99.90;;;;;;6733889;88;20185;-77
2021/09/20 00:22:55;;;;;;;7.22;4.68;;;14.10;99.90;;;;;;6733159;88;20665;-78
2021/09/20 00:32:56;;;;;;;6.63;4.47;;;14.10;99.90;;;;;;6736239;88;20303;-78
2021/09/20 00:42:56;;;;;;;7.47;4.47;;;14.20;99.90;;;;;;6737156;88;20511;-81
2021/09/20 00:52:57;;;;;;;7.22;4.70;;;14.20;99.90;;;;;;6740312;88;20723;-77
2021/09/20 01:02:58;;;;;;;7.20;4.57;;;14.10;99.90;;;;;;6736381;88;20188;-78
2021/09/20 01:12:58;;;;;;;7.90;4.87;;;13.80;99.90;;;;;;6735805;88;20223;-78
2021/09/20 01:23:00;;;;;;;6.57;4.87;;;13.80;99.90;;;;;;6738195;88;20653;-77
2021/09/20 01:33:01;;;;;;;7.43;4.95;;;13.80;99.90;;;;;;6737004;88;20173;-80
2021/09/20 01:43:03;;;;;;;8.70;5.37;;;13.80;99.90;;;;;;6742077;88;20211;-77
2021/09/20 01:53:03;;;;;;;8.27;5.25;;;13.60;99.90;;;;;;6740392;88;20328;-79
2021/09/20 02:03:04;;;;;;;7.47;5.12;;;13.50;99.90;;;;;;6733868;88;20317;-78
2021/09/20 02:13:05;;;;;;;7.07;5.10;;;13.50;99.90;;;;;;6727770;88;20663;-78
2021/09/20 02:23:05;;;;;;;6.72;4.60;;;13.40;99.90;;;;;;6722924;88;20207;-78
2021/09/20 02:33:06;;;;;;;8.05;4.95;;;13.50;99.90;;;;;;6722085;88;20208;-78
2021/09/20 02:43:07;;;;;;;7.70;5.03;;;13.30;99.90;;;;;;6721855;88;20184;-78
2021/09/20 02:53:08;;;;;;;8.35;5.00;;;13.30;99.90;;;;;;6731857;88;20197;-78
2021/09/20 03:03:08;;;;;;;6.65;4.75;;;13.40;99.90;;;;;;6728446;88;20198;-79
2021/09/20 03:13:09;;;;;;;7.63;4.80;;;13.30;99.90;;;;;;6740149;88;20957;-78
2021/09/20 03:23:09;;;;;;;7.28;4.93;;;13.30;99.90;;;;;;6737779;88;21178;-79
2021/09/20 03:33:10;;;;;;;10.57;5.20;;;13.50;99.90;;;;;;6739016;88;20246;-79
2021/09/20 03:43:10;;;;;;;8.38;5.18;;;13.30;99.90;;;;;;6739942;88;20193;-77
2021/09/20 03:53:11;;;;;;;9.18;4.68;;;13.20;99.90;;;;;;6735394;88;20320;-78
2021/09/20 04:03:11;;;;;;;7.35;4.72;;;13.20;99.90;;;;;;6739891;88;20233;-77
2021/09/20 04:13:12;;;;;;;6.72;4.47;;;13.30;99.90;;;;;;6737618;88;20284;-78
2021/09/20 04:23:12;;;;;;;10.07;4.90;;;13.00;99.90;;;;;;6737236;88;20201;-79
2021/09/20 04:33:19;;;;;;;7.82;4.45;;;12.90;99.90;;;;;;6741882;88;20201;-79
2021/09/20 04:43:20;;;;;;;7.53;4.57;;;12.80;99.90;;;;;;6744232;88;20735;-78
2021/09/20 04:53:20;;;;;;;7.70;4.87;;;12.80;99.90;;;;;;6742982;88;20293;-77
2021/09/20 05:03:21;;;;;;;6.18;4.78;;;12.80;99.90;;;;;;6741672;88;20416;-78
2021/09/20 05:13:21;;;;;;;7.95;4.45;;;12.80;99.90;;;;;;6732332;88;20258;-77
2021/09/20 05:23:22;;;;;;;7.60;4.62;;;12.70;99.90;;;;;;6727072;88;20203;-78
2021/09/20 05:33:22;;;;;;;7.73;5.03;;;12.80;99.90;;;;;;6729439;88;20331;-79
2021/09/20 05:43:24;;;;;;;7.50;4.60;;;12.80;99.90;;;;;;6726713;88;20986;-78
2021/09/20 05:53:24;;;;;;;7.57;4.87;;;12.90;99.90;;;;;;6736289;88;20193;-77
2021/09/20 06:03:27;;;;;;;8.63;4.70;;;12.70;99.90;;;;;;6729701;88;20673;-78
2021/09/20 06:13:27;;;;;;;9.95;4.78;;;12.80;99.90;;;;;;6727554;88;20276;-78
2021/09/20 06:23:28;;;;;;;6.93;4.62;;;12.90;99.90;;;;;;6733626;88;20228;-80
2021/09/20 06:33:32;;;;;;;9.82;4.68;;;13.00;99.90;;;;;;6731497;88;20189;-78
2021/09/20 06:43:33;;;;;;;7.87;4.53;;;13.00;99.90;;;;;;6728772;88;20193;-78
2021/09/20 06:53:34;;;;;;;9.35;4.65;;;13.20;99.90;;;;;;6730893;88;20180;-78
2021/09/20 07:03:34;;;;;;;8.77;4.93;;;13.80;99.90;;;;;;6734138;88;20347;-78
2021/09/20 07:13:35;;;;;;;7.60;4.50;;;14.10;99.90;;;;;;6730123;88;20208;-76
2021/09/20 07:23:36;;;;;;;8.27;4.43;;;14.60;99.90;;;;;;6728628;88;20507;-77
2021/09/20 07:33:36;;;;;;;9.38;4.60;;;15.20;99.90;;;;;;6733478;88;20271;-77
2021/09/20 07:43:38;;;;;;;6.90;4.35;;;15.10;99.90;;;;;;6734658;88;20222;-78
2021/09/20 07:53:39;;;;;;;8.38;4.53;;;15.20;99.90;;;;;;6732403;88;20266;-77
2021/09/20 08:04:00;;;;;;;8.93;4.07;;;15.30;99.90;;;;;;6729376;88;20218;-85
2021/09/20 08:14:01;;;;;;;6.32;4.20;;;15.50;99.90;;;;;;6710428;88;20199;-78
2021/09/20 08:24:02;;;;;;;7.18;4.47;;;15.20;99.90;;;;;;6722269;88;20182;-79
2021/09/20 08:34:04;;;;;;;8.18;4.25;;;15.40;99.90;;;;;;6723991;88;20318;-78
2021/09/20 08:44:04;;;;;;;6.37;3.92;;;16.00;99.90;;;;;;6722683;88;20202;-80
2021/09/20 08:54:06;;;;;;;12.40;4.55;;;15.80;99.90;;;;;;6712443;88;20193;-77
2021/09/20 09:04:30;;;;;;;5.85;4.05;;;15.90;99.90;;;;;;6710977;88;20197;-77
2021/09/20 09:14:38;;;;;;;6.70;4.60;;;15.80;99.90;;;;;;6709888;88;20774;-78
2021/09/20 09:24:52;;;;;;;6.07;4.22;;;16.00;99.90;;;;;;6703928;88;20281;-78
2021/09/20 09:34:59;;;;;;;7.03;3.78;;;16.30;99.90;;;;;;6707397;88;20556;-78
2021/09/20 09:45:14;;;;;;;7.00;4.30;;;16.20;99.90;;;;;;6705664;88;20356;-79
2021/09/20 09:55:15;;;;;;;6.43;4.10;;;16.40;99.90;;;;;;6706433;88;20630;-80
2021/09/20 10:05:23;;;;;;;13.50;4.45;;;16.90;99.90;;;;;;6708365;88;20301;-79
2021/09/20 10:15:25;;;;;;;7.55;4.30;;;17.20;99.90;;;;;;6709116;88;20203;-80
2021/09/20 10:25:28;;;;;;;6.20;3.85;;;17.00;99.90;;;;;;6706806;88;20223;-77
2021/09/20 10:35:29;;;;;;;7.05;4.25;;;17.40;99.90;;;;;;6708430;88;20215;-80
2021/09/20 10:45:34;;;;;;;6.35;4.30;;;17.20;99.90;;;;;;6706113;88;20182;-79
2021/09/20 10:55:54;;;;;;;;;;;17.30;99.90;;;;;;6704580;88;20182;-78
2021/09/20 11:06:20;;;;;;;8.77;4.35;;;18.40;99.90;;;;;;6703801;88;20202;-78
2021/09/20 11:16:39;;;;;;;;;;;18.30;99.90;;;;;;6704798;88;20208;-78
2021/09/20 11:26:40;;;;;;;7.62;4.85;;;18.90;99.90;;;;;;6704774;88;20065;-79
2021/09/20 11:36:40;;;;;;;7.15;4.43;;;18.90;99.90;;;;;;6703976;88;20206;-80
2021/09/20 11:46:42;;;;;;;12.20;4.80;;;18.80;99.90;;;;;;6703791;88;20242;-78
2021/09/20 11:56:42;;;;;;;9.80;4.72;;;18.80;99.90;;;;;;6703709;88;20705;-78
2021/09/20 12:06:43;;;;;;;7.80;4.53;;;19.40;99.90;;;;;;6701904;88;20185;-80
2021/09/20 12:16:43;;;;;;;9.50;4.82;;;19.70;99.90;;;;;;6707375;88;20379;-79
2021/09/20 12:26:44;;;;;;;10.65;5.50;;;19.40;99.90;;;;;;6711816;88;20693;-78
2021/09/20 12:36:46;;;;;;;6.93;4.62;;;19.20;99.90;;;;;;6716198;88;20212;-79
2021/09/20 12:46:47;;;;;;;8.40;4.15;;;19.00;99.90;;;;;;6712096;88;20190;-78
2021/09/20 12:56:48;;;;;;;7.30;4.70;;;18.80;99.90;;;;;;6718715;88;20203;-77
2021/09/20 13:07:04;;;;;;;8.18;4.65;;;18.00;99.90;;;;;;6715755;88;20243;-78
2021/09/20 13:17:07;;;;;;;8.38;5.10;;;18.40;99.90;;;;;;6715050;88;20178;-77
2021/09/20 13:27:17;;;;;;;6.00;4.47;;;18.50;99.90;;;;;;6719359;88;20207;-78
2021/09/20 13:37:18;;;;;;;5.80;4.40;;;18.60;99.90;;;;;;6712714;88;20190;-79
2021/09/20 13:47:18;;;;;;;6.32;3.90;;;18.50;99.90;;;;;;6715646;88;20195;-78
2021/09/20 13:57:19;;;;;;;5.87;3.83;;;18.70;99.90;;;;;;6719819;88;20190;-79
2021/09/20 14:07:21;;;;;;;6.53;4.07;;;18.70;99.90;;;;;;6717380;88;20186;-78
2021/09/20 14:17:21;;;;;;;8.02;3.78;;;18.70;99.90;;;;;;6724146;88;20227;-79
2021/09/20 14:27:22;;;;;;;7.93;4.60;;;18.50;99.90;;;;;;6716741;88;20229;-78
2021/09/20 14:37:22;;;;;;;6.10;3.73;;;18.50;99.90;;;;;;6725537;88;20273;-78
2021/09/20 14:47:23;;;;;;;4.97;3.62;;;18.50;99.90;;;;;;6720367;88;20518;-78
2021/09/20 14:57:24;;;;;;;7.12;3.75;;;18.50;99.90;;;;;;6716888;88;20182;-79
2021/09/20 15:07:25;;;;;;;6.62;3.50;;;18.40;99.90;;;;;;6719090;88;20206;-78
2021/09/20 15:17:26;;;;;;;6.60;3.42;;;18.30;99.90;;;;;;6722458;88;20305;-78
2021/09/20 15:27:26;;;;;;;4.87;3.30;;;18.20;99.90;;;;;;6721330;88;20255;-78
2021/09/20 15:37:27;;;;;;;4.57;3.23;;;18.10;99.90;;;;;;6721224;88;20189;-77
2021/09/20 15:47:28;;;;;;;5.15;3.35;;;18.00;99.90;;;;;;6722556;88;20529;-75
2021/09/20 15:57:29;;;;;;;4.87;3.50;;;18.00;99.90;;;;;;6721854;88;20207;-76
2021/09/20 16:07:30;;;;;;;4.93;3.40;;;17.90;99.90;;;;;;6723352;88;20297;-77
2021/09/20 16:17:31;;;;;;;8.18;3.80;;;17.80;99.90;;;;;;6719294;88;20280;-77
2021/09/20 16:27:31;;;;;;;4.78;3.17;;;17.80;99.90;;;;;;6725969;88;21221;-78
2021/09/20 16:37:33;;;;;;;5.80;3.65;;;17.40;99.90;;;;;;6719760;88;20632;-77
2021/09/20 16:47:34;;;;;;;6.95;3.90;;;17.30;99.90;;;;;;6725125;88;20210;-76
2021/09/20 16:57:35;;;;;;;5.93;4.10;;;17.30;99.90;;;;;;6722762;88;20733;-77
2021/09/20 17:07:36;;;;;;;6.60;3.97;;;17.20;99.90;;;;;;6719963;88;20189;-78
2021/09/20 17:17:37;;;;;;;5.65;3.78;;;17.00;99.90;;;;;;6713797;88;20174;-78
2021/09/20 17:27:38;;;;;;;4.75;3.58;;;17.00;99.90;;;;;;6710266;88;20230;-77
2021/09/20 17:37:38;;;;;;;5.22;3.47;;;16.90;99.90;;;;;;6710407;88;20201;-76
2021/09/20 17:47:39;;;;;;;5.32;3.50;;;16.60;99.90;;;;;;6703187;88;20605;-76
2021/09/20 17:57:40;;;;;;;5.82;3.95;;;16.50;99.90;;;;;;6709147;88;20200;-76
2021/09/20 18:07:41;;;;;;;6.22;4.05;;;16.40;99.90;;;;;;6712425;88;20321;-76
2021/09/20 18:17:43;;;;;;;8.53;4.43;;;16.50;99.90;;;;;;6707764;88;20364;-78
2021/09/20 18:27:44;;;;;;;6.35;4.30;;;16.30;99.90;;;;;;6711468;88;20523;-76
2021/09/20 18:37:45;;;;;;;7.28;4.55;;;16.00;99.90;;;;;;6708723;88;20186;-77
2021/09/20 18:47:46;;;;;;;7.12;4.37;;;15.80;99.90;;;;;;6710621;88;20618;-76
2021/09/20 18:57:47;;;;;;;8.30;5.10;;;15.90;99.90;;;;;;6716068;88;20293;-77
2021/09/20 19:07:48;;;;;;;7.20;4.75;;;15.70;99.90;;;;;;6716262;88;20621;-76
2021/09/20 19:17:48;;;;;;;6.28;4.45;;;15.70;99.90;;;;;;6715437;88;20194;-78
2021/09/20 19:27:49;;;;;;;6.20;4.47;;;15.60;99.90;;;;;;6712000;88;20245;-77
2021/09/20 19:37:50;;;;;;;7.70;5.00;;;15.40;99.90;;;;;;6710148;88;20194;-74
2021/09/20 19:47:51;;;;;;;7.45;4.85;;;15.50;99.90;;;;;;6707892;88;20222;-75
2021/09/20 19:57:52;;;;;;;7.10;5.13;;;15.40;99.90;;;;;;6706967;88;22648;-76
2021/09/20 20:17:56;;;;;;;6.80;4.82;;;15.40;99.90;;;;;;6731214;88;20366;-81
2021/09/20 20:27:57;;;;;;;8.07;5.45;;;15.40;99.90;;;;;;6725477;88;20188;-80
2021/09/20 20:37:58;;;;;;;9.05;5.20;;;15.40;99.90;;;;;;6720972;88;20218;-80
2021/09/20 20:47:59;;;;;;;6.85;4.97;;;15.30;99.90;;;;;;6724631;88;20192;-80
2021/09/20 20:57:59;;;;;;;7.35;5.07;;;15.30;99.90;;;;;;6734982;88;20185;-79
2021/09/20 21:08:00;;;;;;;7.80;5.15;;;15.00;99.90;;;;;;6741302;87;20208;-79
2021/09/20 21:18:00;;;;;;;7.57;5.15;;;14.80;99.90;;;;;;6740584;88;20655;-80
2021/09/20 21:28:01;;;;;;;7.40;5.00;;;14.80;99.90;;;;;;6740170;88;20205;-79
2021/09/20 21:38:02;;;;;;;6.95;5.00;;;14.80;99.90;;;;;;6737124;88;20353;-80
2021/09/20 21:48:03;;;;;;;6.87;5.00;;;14.80;99.90;;;;;;6740261;88;20635;-80
2021/09/20 21:58:04;;;;;;;8.70;5.35;;;14.80;99.90;;;;;;6741363;88;20197;-78
2021/09/20 22:08:05;;;;;;;9.32;5.20;;;14.80;99.90;;;;;;6739256;88;20209;-78
2021/09/20 22:18:05;;;;;;;7.47;5.12;;;14.60;99.90;;;;;;6741580;88;20225;-79
2021/09/20 22:28:09;;;;;;;7.05;4.60;;;14.50;99.90;;;;;;6740325;88;20181;-79
2021/09/20 22:38:10;;;;;;;7.45;4.93;;;14.40;99.90;;;;;;6750787;88;20219;-80
2021/09/20 22:48:11;;;;;;;8.32;5.18;;;14.50;99.90;;;;;;6740122;88;20216;-79
2021/09/20 22:58:12;;;;;;;8.98;4.93;;;14.30;99.90;;;;;;6737612;88;20902;-80
2021/09/20 23:08:13;;;;;;;6.82;4.90;;;14.20;99.90;;;;;;6740779;88;20354;-80
2021/09/20 23:18:13;;;;;;;8.07;4.80;;;14.30;99.90;;;;;;6743254;88;20327;-79
2021/09/20 23:28:14;;;;;;;7.95;5.12;;;14.20;99.90;;;;;;6743025;88;20180;-80
2021/09/20 23:38:14;;;;;;;8.85;5.20;;;14.20;99.90;;;;;;6743665;88;20188;-79
2021/09/20 23:48:15;;;;;;;6.65;4.85;;;14.10;99.90;;;;;;6742882;88;20180;-79
2021/09/20 23:58:16;;;;;;;8.05;4.93;;;14.10;99.90;;;;;;6739342;88;20338;-79
